Time;durP1;ratioP1;P1;durP2;ratioP2;P2;SDS_P1;SDS_P2;PMS_P1;PMS_P2;Temp;Humidity;BMP_temperature;BMP_pressure;BME280_temperature;BME280_humidity;BME280_pressure;Samples;Min_cycle;Max_cycle;Signal;HPM_P1;HPM_P2
2023/05/14 00:01:09;;;;;;;8.20;6.40;;;;;;;;;;107743;283;38901;-35
2023/05/14 00:03:46;;;;;;;8.30;6.80;;;;;;;;;;107782;283;39720;-34
2023/05/14 00:06:20;;;;;;;9.50;6.80;;;;;;;;;;107743;283;48905;-34
2023/05/14 00:08:55;;;;;;;8.80;6.60;;;;;;;;;;107800;283;42175;-35
2023/05/14 00:11:30;;;;;;;8.70;6.80;;;;;;;;;;107800;283;38800;-35
2023/05/14 00:14:05;;;;;;;8.20;6.40;;;;;;;;;;107783;283;39723;-35
2023/05/14 00:16:40;;;;;;;8.90;6.70;;;;;;;;;;107758;276;48852;-34
2023/05/14 00:19:20;;;;;;;8.40;6.60;;;;;;;;;;107796;283;42255;-35
2023/05/14 00:21:55;;;;;;;9.40;6.90;;;;;;;;;;107783;283;38906;-35
2023/05/14 00:24:29;;;;;;;8.60;6.90;;;;;;;;;;107802;283;39854;-35
2023/05/14 00:27:08;;;;;;;8.50;6.80;;;;;;;;;;107767;280;49244;-35
2023/05/14 00:29:44;;;;;;;8.70;6.70;;;;;;;;;;107809;275;42183;-34
2023/05/14 00:32:21;;;;;;;8.00;6.60;;;;;;;;;;107772;275;38815;-34
2023/05/14 00:34:58;;;;;;;8.20;6.50;;;;;;;;;;107714;282;40935;-34
2023/05/14 00:37:33;;;;;;;8.50;6.80;;;;;;;;;;107803;276;42933;-34
2023/05/14 00:40:11;;;;;;;9.10;6.90;;;;;;;;;;107803;283;42303;-34
2023/05/14 00:42:48;;;;;;;8.00;6.70;;;;;;;;;;107830;276;39121;-35
2023/05/14 00:45:27;;;;;;;8.70;6.80;;;;;;;;;;107619;283;175573;-34
2023/05/14 00:48:01;;;;;;;8.30;6.90;;;;;;;;;;107817;283;43043;-35
2023/05/14 00:50:36;;;;;;;9.10;6.90;;;;;;;;;;107785;275;42397;-35
2023/05/14 00:53:12;;;;;;;8.20;6.60;;;;;;;;;;107820;275;38767;-35
2023/05/14 00:55:50;;;;;;;8.60;6.50;;;;;;;;;;107817;282;40791;-35
2023/05/14 00:58:27;;;;;;;8.70;6.80;;;;;;;;;;107705;282;175605;-35
2023/05/14 01:01:04;;;;;;;8.10;6.80;;;;;;;;;;107839;275;44548;-35
2023/05/14 01:03:39;;;;;;;8.40;6.80;;;;;;;;;;107805;282;38705;-35
2023/05/14 01:06:24;;;;;;;8.30;6.80;;;;;;;;;;107802;282;39738;-35
2023/05/14 01:09:09;;;;;;;8.10;6.70;;;;;;;;;;107863;275;43527;-35
2023/05/14 01:11:59;;;;;;;9.00;6.80;;;;;;;;;;107829;282;41846;-34
2023/05/14 01:14:41;;;;;;;8.70;7.10;;;;;;;;;;107388;282;580037;-34
2023/05/14 01:17:21;;;;;;;8.30;6.60;;;;;;;;;;107733;278;39874;-34
2023/05/14 01:20:01;;;;;;;8.10;6.70;;;;;;;;;;107863;282;42850;-35
2023/05/14 01:22:39;;;;;;;7.90;6.60;;;;;;;;;;107871;282;42264;-35
2023/05/14 01:25:14;;;;;;;8.10;6.80;;;;;;;;;;107841;282;39914;-35
2023/05/14 01:27:55;;;;;;;8.20;6.90;;;;;;;;;;107807;282;39846;-35
2023/05/14 01:30:34;;;;;;;8.50;7.00;;;;;;;;;;107843;282;44247;-35
2023/05/14 01:33:13;;;;;;;8.00;6.80;;;;;;;;;;107851;275;42202;-35
2023/05/14 01:35:47;;;;;;;8.80;7.00;;;;;;;;;;107853;282;38941;-34
2023/05/14 01:38:24;;;;;;;8.40;7.00;;;;;;;;;;107816;282;45495;-34
2023/05/14 01:41:04;;;;;;;9.70;6.70;;;;;;;;;;107892;275;44067;-35
2023/05/14 01:43:39;;;;;;;8.60;7.00;;;;;;;;;;107890;282;42178;-35
2023/05/14 01:46:16;;;;;;;9.50;7.10;;;;;;;;;;107875;282;38844;-34
2023/05/14 01:48:51;;;;;;;9.90;7.10;;;;;;;;;;107875;282;45861;-34
2023/05/14 01:51:26;;;;;;;8.20;6.80;;;;;;;;;;107907;282;42753;-35
2023/05/14 01:54:02;;;;;;;9.20;7.10;;;;;;;;;;107802;276;42186;-35
2023/05/14 01:56:36;;;;;;;9.20;7.40;;;;;;;;;;107763;276;39328;-36
2023/05/14 01:59:11;;;;;;;8.40;7.10;;;;;;;;;;107777;283;45980;-35
2023/05/14 02:01:46;;;;;;;8.30;7.30;;;;;;;;;;107765;283;43182;-35
2023/05/14 02:04:20;;;;;;;9.00;7.40;;;;;;;;;;107780;276;42173;-35
2023/05/14 02:06:57;;;;;;;8.30;7.40;;;;;;;;;;107745;283;38899;-34
2023/05/14 02:09:31;;;;;;;8.30;7.20;;;;;;;;;;107798;283;45974;-34
2023/05/14 02:12:10;;;;;;;8.50;7.40;;;;;;;;;;107787;276;42923;-35
2023/05/14 02:14:46;;;;;;;8.70;7.80;;;;;;;;;;107776;283;42196;-35
2023/05/14 02:17:22;;;;;;;8.60;7.10;;;;;;;;;;107780;276;38897;-34
2023/05/14 02:19:56;;;;;;;8.20;7.00;;;;;;;;;;107796;283;39917;-35
2023/05/14 02:22:31;;;;;;;8.90;7.90;;;;;;;;;;107760;276;43359;-34
2023/05/14 02:25:07;;;;;;;8.90;7.40;;;;;;;;;;107762;283;42104;-36
2023/05/14 02:27:41;;;;;;;9.00;7.70;;;;;;;;;;107743;276;38812;-36
2023/05/14 02:30:23;;;;;;;8.60;7.60;;;;;;;;;;107774;276;39526;-36
2023/05/14 02:32:58;;;;;;;8.20;7.30;;;;;;;;;;107796;276;43107;-35
2023/05/14 02:35:35;;;;;;;9.70;7.90;;;;;;;;;;107774;276;42609;-35
2023/05/14 02:38:09;;;;;;;9.30;8.00;;;;;;;;;;107757;283;40860;-35
2023/05/14 02:40:46;;;;;;;8.40;7.30;;;;;;;;;;107795;283;39746;-34
2023/05/14 02:43:22;;;;;;;9.00;7.80;;;;;;;;;;107797;283;42866;-35
2023/05/14 02:45:56;;;;;;;8.60;7.60;;;;;;;;;;107727;276;42143;-35
2023/05/14 02:48:30;;;;;;;9.30;7.80;;;;;;;;;;107755;276;38766;-35
2023/05/14 02:51:06;;;;;;;9.20;8.20;;;;;;;;;;107787;283;41505;-35
2023/05/14 02:53:41;;;;;;;8.60;7.70;;;;;;;;;;107789;276;42968;-35
2023/05/14 02:56:17;;;;;;;8.60;7.60;;;;;;;;;;107779;276;42129;-35
2023/05/14 02:58:51;;;;;;;8.90;8.00;;;;;;;;;;107770;283;38614;-34
2023/05/14 03:01:26;;;;;;;9.50;8.20;;;;;;;;;;107779;283;40090;-34
2023/05/14 03:04:02;;;;;;;10.00;8.50;;;;;;;;;;107791;275;43015;-34
2023/05/14 03:06:38;;;;;;;9.30;8.30;;;;;;;;;;107782;279;44737;-34
2023/05/14 03:09:14;;;;;;;9.40;8.00;;;;;;;;;;107783;283;38940;-34
2023/05/14 03:11:50;;;;;;;9.30;8.30;;;;;;;;;;107797;280;39857;-35
2023/05/14 03:14:24;;;;;;;9.10;8.10;;;;;;;;;;107787;283;43004;-36
2023/05/14 03:17:00;;;;;;;9.50;8.20;;;;;;;;;;107811;283;42161;-35
2023/05/14 03:19:36;;;;;;;9.10;8.00;;;;;;;;;;107752;280;39034;-35
2023/05/14 03:22:10;;;;;;;10.30;8.40;;;;;;;;;;107827;275;40088;-35
2023/05/14 03:24:46;;;;;;;9.40;8.10;;;;;;;;;;107838;283;43077;-35
2023/05/14 03:27:20;;;;;;;9.10;8.10;;;;;;;;;;107790;287;42163;-35
2023/05/14 03:29:57;;;;;;;10.10;8.40;;;;;;;;;;107766;283;39149;-34
2023/05/14 03:32:34;;;;;;;9.10;8.00;;;;;;;;;;107788;283;39734;-35
2023/05/14 03:35:10;;;;;;;10.00;8.90;;;;;;;;;;107778;283;43079;-35
2023/05/14 03:37:44;;;;;;;9.90;8.90;;;;;;;;;;107774;283;42417;-35
2023/05/14 03:40:20;;;;;;;9.20;8.30;;;;;;;;;;107072;283;895227;-35
2023/05/14 03:42:57;;;;;;;9.20;8.30;;;;;;;;;;107815;283;40192;-35
2023/05/14 03:45:33;;;;;;;9.40;8.40;;;;;;;;;;107796;283;42972;-34
2023/05/14 03:48:14;;;;;;;9.90;8.90;;;;;;;;;;107797;283;42272;-34
2023/05/14 03:50:50;;;;;;;9.50;8.40;;;;;;;;;;107640;276;175554;-34
2023/05/14 03:53:25;;;;;;;9.30;8.40;;;;;;;;;;107806;283;39967;-36
2023/05/14 03:56:00;;;;;;;9.80;8.80;;;;;;;;;;107780;283;45092;-36
2023/05/14 03:58:34;;;;;;;9.90;8.90;;;;;;;;;;107825;283;42167;-36
2023/05/14 04:01:08;;;;;;;9.60;8.60;;;;;;;;;;107779;282;38846;-36
2023/05/14 04:03:44;;;;;;;9.70;8.70;;;;;;;;;;107777;283;39837;-36
2023/05/14 04:06:23;;;;;;;9.70;8.70;;;;;;;;;;107775;275;42894;-36
2023/05/14 04:08:56;;;;;;;9.70;8.70;;;;;;;;;;107795;283;42108;-34
2023/05/14 04:11:30;;;;;;;9.60;8.60;;;;;;;;;;107774;283;38799;-34
2023/05/14 04:14:04;;;;;;;9.70;8.70;;;;;;;;;;107797;275;39840;-35
2023/05/14 04:16:40;;;;;;;9.80;8.80;;;;;;;;;;107786;283;43202;-35
2023/05/14 04:19:15;;;;;;;10.20;9.20;;;;;;;;;;107812;288;42320;-35
2023/05/14 04:21:51;;;;;;;10.00;9.00;;;;;;;;;;107780;276;41077;-34
2023/05/14 04:24:27;;;;;;;9.50;8.50;;;;;;;;;;107804;283;40725;-35
2023/05/14 04:27:01;;;;;;;10.40;8.90;;;;;;;;;;105582;275;3011062;-35
2023/05/14 04:29:35;;;;;;;10.00;9.00;;;;;;;;;;107785;283;42180;-34
2023/05/14 04:32:11;;;;;;;10.10;8.90;;;;;;;;;;107763;283;44514;-35
2023/05/14 04:34:46;;;;;;;9.60;8.60;;;;;;;;;;107845;283;39865;-35
2023/05/14 04:37:20;;;;;;;9.70;8.70;;;;;;;;;;107804;283;44046;-35
2023/05/14 04:39:54;;;;;;;10.50;9.40;;;;;;;;;;107821;283;41859;-35
2023/05/14 04:42:27;;;;;;;9.90;8.90;;;;;;;;;;107775;283;44727;-35
2023/05/14 04:45:03;;;;;;;10.20;9.20;;;;;;;;;;107809;283;40866;-35
2023/05/14 04:47:39;;;;;;;10.80;9.50;;;;;;;;;;107830;283;44004;-35
2023/05/14 04:50:17;;;;;;;10.20;9.20;;;;;;;;;;107810;275;43349;-35
2023/05/14 04:52:51;;;;;;;10.50;9.40;;;;;;;;;;107814;282;44618;-36
2023/05/14 04:55:25;;;;;;;10.40;9.30;;;;;;;;;;107866;282;41809;-34
2023/05/14 04:57:59;;;;;;;10.80;9.70;;;;;;;;;;107873;275;44127;-35
2023/05/14 05:00:33;;;;;;;10.70;9.60;;;;;;;;;;107779;284;175572;-34
2023/05/14 05:03:09;;;;;;;10.50;9.20;;;;;;;;;;107804;275;47768;-39
2023/05/14 05:05:43;;;;;;;10.80;9.50;;;;;;;;;;107774;276;39695;-34
2023/05/14 05:08:19;;;;;;;10.60;9.50;;;;;;;;;;107883;275;42890;-35
2023/05/14 05:10:54;;;;;;;10.80;9.70;;;;;;;;;;107834;275;43249;-35
2023/05/14 05:13:31;;;;;;;10.90;9.80;;;;;;;;;;107786;274;44519;-35
2023/05/14 05:16:06;;;;;;;11.10;9.70;;;;;;;;;;107839;282;39862;-34
2023/05/14 05:18:44;;;;;;;10.90;9.80;;;;;;;;;;107879;282;42877;-35
2023/05/14 05:21:21;;;;;;;10.60;9.50;;;;;;;;;;107815;275;43344;-35
2023/05/14 05:23:57;;;;;;;11.10;10.00;;;;;;;;;;107803;275;45323;-34
2023/05/14 05:26:31;;;;;;;11.40;10.20;;;;;;;;;;107817;282;41181;-35
2023/05/14 05:29:05;;;;;;;11.30;10.10;;;;;;;;;;107862;282;42872;-35
2023/05/14 05:31:41;;;;;;;10.90;9.80;;;;;;;;;;107807;275;42184;-35
2023/05/14 05:34:15;;;;;;;10.70;9.60;;;;;;;;;;107816;282;45204;-35
2023/05/14 05:36:52;;;;;;;10.60;9.60;;;;;;;;;;107845;275;39722;-35
2023/05/14 05:39:33;;;;;;;10.80;9.70;;;;;;;;;;107819;282;42965;-34
2023/05/14 05:42:10;;;;;;;10.90;9.80;;;;;;;;;;107835;282;42499;-35
2023/05/14 05:44:44;;;;;;;10.80;9.80;;;;;;;;;;107853;275;38837;-35
2023/05/14 05:47:19;;;;;;;11.20;10.10;;;;;;;;;;107900;275;39713;-35
2023/05/14 05:49:53;;;;;;;11.40;10.20;;;;;;;;;;107701;275;175569;-35
2023/05/14 05:52:27;;;;;;;11.00;9.90;;;;;;;;;;107828;282;41980;-35
2023/05/14 05:55:03;;;;;;;11.10;10.00;;;;;;;;;;107787;276;38808;-34
2023/05/14 05:57:37;;;;;;;11.20;10.10;;;;;;;;;;107776;276;39665;-34
2023/05/14 06:00:16;;;;;;;11.30;10.20;;;;;;;;;;107810;276;43036;-35
2023/05/14 06:02:51;;;;;;;11.10;10.00;;;;;;;;;;107773;283;42202;-35
2023/05/14 06:05:27;;;;;;;10.80;9.70;;;;;;;;;;107792;276;38861;-35
2023/05/14 06:08:04;;;;;;;10.90;9.80;;;;;;;;;;107817;276;40799;-35
2023/05/14 06:10:38;;;;;;;10.60;9.50;;;;;;;;;;107809;283;42894;-35
2023/05/14 06:13:11;;;;;;;11.00;9.90;;;;;;;;;;107780;283;43330;-35
2023/05/14 06:15:46;;;;;;;10.80;9.60;;;;;;;;;;107785;283;38945;-35
2023/05/14 06:18:21;;;;;;;10.50;9.50;;;;;;;;;;107819;276;39739;-35
2023/05/14 06:20:56;;;;;;;10.30;9.30;;;;;;;;;;107804;283;42978;-35
2023/05/14 06:23:29;;;;;;;11.00;9.90;;;;;;;;;;107705;283;42302;-35
2023/05/14 06:26:03;;;;;;;10.20;9.10;;;;;;;;;;107818;283;38762;-35
2023/05/14 06:28:36;;;;;;;10.60;9.40;;;;;;;;;;107803;280;39701;-35
2023/05/14 06:31:11;;;;;;;10.60;9.60;;;;;;;;;;107805;286;42878;-35
2023/05/14 06:33:47;;;;;;;10.20;9.20;;;;;;;;;;107761;283;42476;-35
2023/05/14 06:36:23;;;;;;;9.90;8.90;;;;;;;;;;107827;283;39806;-40
2023/05/14 06:38:56;;;;;;;9.80;8.80;;;;;;;;;;107814;283;40955;-35
2023/05/14 06:41:31;;;;;;;10.50;9.20;;;;;;;;;;107777;283;44013;-35
2023/05/14 06:44:05;;;;;;;9.90;8.90;;;;;;;;;;107767;283;42534;-36
2023/05/14 06:46:40;;;;;;;10.10;9.00;;;;;;;;;;107790;276;38775;-35
2023/05/14 06:49:14;;;;;;;9.90;8.60;;;;;;;;;;107721;275;175537;-35
2023/05/14 06:51:48;;;;;;;9.70;8.70;;;;;;;;;;107812;280;42910;-35
2023/05/14 06:54:22;;;;;;;9.30;8.30;;;;;;;;;;107772;283;42144;-35
2023/05/14 06:56:55;;;;;;;10.40;8.40;;;;;;;;;;107831;283;38841;-36
2023/05/14 06:59:29;;;;;;;9.50;8.40;;;;;;;;;;107830;283;41001;-35
2023/05/14 07:02:02;;;;;;;9.20;8.20;;;;;;;;;;107706;283;175524;-36
2023/05/14 07:04:36;;;;;;;9.40;8.40;;;;;;;;;;107728;283;43307;-36
2023/05/14 07:07:17;;;;;;;10.10;8.30;;;;;;;;;;107693;282;38883;-35
2023/05/14 07:09:52;;;;;;;9.50;8.30;;;;;;;;;;107779;283;39712;-36
2023/05/14 07:12:28;;;;;;;9.10;8.10;;;;;;;;;;107794;283;42975;-35
2023/05/14 07:15:06;;;;;;;9.90;8.20;;;;;;;;;;107754;283;43460;-35
2023/05/14 07:17:40;;;;;;;9.70;8.70;;;;;;;;;;107787;283;38763;-35
2023/05/14 07:20:16;;;;;;;9.80;8.70;;;;;;;;;;107740;283;41009;-35
2023/05/14 07:22:51;;;;;;;10.00;9.00;;;;;;;;;;107760;283;42889;-36
2023/05/14 07:25:25;;;;;;;9.20;8.10;;;;;;;;;;107772;283;42192;-35
2023/05/14 07:28:00;;;;;;;10.30;8.80;;;;;;;;;;107793;283;38934;-35
2023/05/14 07:30:35;;;;;;;9.50;8.40;;;;;;;;;;107787;283;39687;-35
2023/05/14 07:33:08;;;;;;;9.30;8.30;;;;;;;;;;107737;280;45081;-35
2023/05/14 07:35:42;;;;;;;9.40;8.20;;;;;;;;;;107769;288;42178;-35
2023/05/14 07:38:18;;;;;;;8.90;8.00;;;;;;;;;;107820;283;39899;-35
2023/05/14 07:40:51;;;;;;;9.90;8.30;;;;;;;;;;107785;283;39889;-35
2023/05/14 07:43:26;;;;;;;9.50;7.90;;;;;;;;;;107805;275;42628;-34
2023/05/14 07:46:01;;;;;;;9.30;8.00;;;;;;;;;;107755;275;44358;-35
2023/05/14 07:48:36;;;;;;;9.50;8.10;;;;;;;;;;107791;283;38835;-35
2023/05/14 07:51:10;;;;;;;8.70;7.70;;;;;;;;;;107774;275;39489;-35
2023/05/14 07:53:49;;;;;;;9.40;7.90;;;;;;;;;;107799;283;42841;-35
2023/05/14 07:56:25;;;;;;;9.20;7.70;;;;;;;;;;107759;279;43276;-35
2023/05/14 07:59:07;;;;;;;8.80;7.70;;;;;;;;;;107815;283;38870;-35
2023/05/14 08:01:43;;;;;;;8.90;7.60;;;;;;;;;;107795;283;39814;-34
2023/05/14 08:04:22;;;;;;;9.10;7.40;;;;;;;;;;107781;283;42844;-36
2023/05/14 08:06:58;;;;;;;8.40;7.50;;;;;;;;;;107747;283;43348;-35
2023/05/14 08:09:32;;;;;;;9.00;7.20;;;;;;;;;;107773;276;38538;-37
2023/05/14 08:12:08;;;;;;;8.90;7.30;;;;;;;;;;107741;275;39752;-37
2023/05/14 08:14:42;;;;;;;9.00;7.20;;;;;;;;;;107854;275;42778;-37
2023/05/14 08:17:17;;;;;;;8.30;6.90;;;;;;;;;;107775;283;48917;-37
2023/05/14 08:19:52;;;;;;;8.30;6.60;;;;;;;;;;107814;283;39237;-37
2023/05/14 08:22:27;;;;;;;7.40;6.60;;;;;;;;;;107896;282;39710;-36
2023/05/14 08:25:04;;;;;;;7.90;6.60;;;;;;;;;;107847;282;44140;-36
2023/05/14 08:27:39;;;;;;;8.10;6.50;;;;;;;;;;107943;282;47818;-36
2023/05/14 08:30:15;;;;;;;7.60;6.30;;;;;;;;;;107831;282;40248;-36
2023/05/14 08:32:50;;;;;;;7.70;6.60;;;;;;;;;;107835;282;41040;-36
2023/05/14 08:35:27;;;;;;;9.20;6.70;;;;;;;;;;107809;282;42857;-36
2023/05/14 08:38:01;;;;;;;7.60;6.30;;;;;;;;;;107815;282;48872;-35
2023/05/14 08:40:37;;;;;;;7.60;6.50;;;;;;;;;;107850;282;38811;-35
2023/05/14 08:43:15;;;;;;;7.40;5.70;;;;;;;;;;107843;282;39756;-35
2023/05/14 08:45:58;;;;;;;7.60;6.00;;;;;;;;;;107843;282;42840;-35
2023/05/14 08:48:33;;;;;;;7.90;6.40;;;;;;;;;;107860;275;48535;-35
2023/05/14 08:51:10;;;;;;;7.50;5.90;;;;;;;;;;107864;282;38910;-35
2023/05/14 08:53:43;;;;;;;7.30;5.80;;;;;;;;;;107834;282;40843;-35
2023/05/14 08:56:20;;;;;;;8.00;6.10;;;;;;;;;;107830;282;43966;-35
2023/05/14 08:58:54;;;;;;;7.40;6.20;;;;;;;;;;107800;282;42160;-34
2023/05/14 09:01:29;;;;;;;7.10;5.80;;;;;;;;;;107845;282;38807;-34
2023/05/14 09:04:07;;;;;;;7.40;5.70;;;;;;;;;;107806;282;41907;-35
2023/05/14 09:06:44;;;;;;;7.30;5.70;;;;;;;;;;107782;282;42923;-35
2023/05/14 09:09:21;;;;;;;6.90;5.20;;;;;;;;;;107837;282;42154;-35
2023/05/14 09:11:56;;;;;;;6.40;5.40;;;;;;;;;;107807;282;41313;-35
2023/05/14 09:14:32;;;;;;;6.80;5.60;;;;;;;;;;107462;282;589539;-35
2023/05/14 09:17:06;;;;;;;7.30;5.30;;;;;;;;;;107128;275;892192;-36
2023/05/14 09:19:42;;;;;;;7.00;5.20;;;;;;;;;;107839;283;42195;-36
2023/05/14 09:22:17;;;;;;;7.30;5.50;;;;;;;;;;107860;282;38848;-36
2023/05/14 09:25:06;;;;;;;7.40;5.00;;;;;;;;;;107919;282;39738;-36
2023/05/14 09:27:40;;;;;;;7.80;5.50;;;;;;;;;;107875;275;42901;-36
2023/05/14 09:30:16;;;;;;;6.90;5.30;;;;;;;;;;107878;282;42164;-36
2023/05/14 09:32:49;;;;;;;6.80;5.20;;;;;;;;;;107879;282;38792;-36
2023/05/14 09:35:26;;;;;;;6.90;5.00;;;;;;;;;;107821;278;39480;-36
2023/05/14 09:38:01;;;;;;;6.50;4.90;;;;;;;;;;107877;275;43149;-36
2023/05/14 09:40:35;;;;;;;6.20;4.80;;;;;;;;;;107849;282;41861;-36
2023/05/14 09:43:12;;;;;;;6.80;4.80;;;;;;;;;;107854;282;38912;-36
2023/05/14 09:45:47;;;;;;;6.80;4.50;;;;;;;;;;107754;282;175500;-35
2023/05/14 09:48:23;;;;;;;6.10;4.40;;;;;;;;;;107810;282;45138;-35
2023/05/14 09:50:59;;;;;;;6.20;4.50;;;;;;;;;;107872;282;42292;-35
2023/05/14 09:53:38;;;;;;;6.20;4.20;;;;;;;;;;107781;276;38915;-35
2023/05/14 09:56:15;;;;;;;6.40;4.30;;;;;;;;;;107796;283;39875;-35
2023/05/14 09:58:50;;;;;;;6.90;4.50;;;;;;;;;;107743;283;43148;-35
2023/05/14 10:01:26;;;;;;;6.40;4.30;;;;;;;;;;107773;276;42416;-35
2023/05/14 10:04:00;;;;;;;6.50;4.10;;;;;;;;;;107793;283;38742;-35
2023/05/14 10:06:41;;;;;;;6.20;4.20;;;;;;;;;;107777;283;39759;-35
2023/05/14 10:09:18;;;;;;;5.60;4.20;;;;;;;;;;107746;283;42648;-35
2023/05/14 10:11:56;;;;;;;6.40;4.20;;;;;;;;;;107798;283;44242;-35
2023/05/14 10:14:41;;;;;;;5.70;4.10;;;;;;;;;;107809;283;40138;-35
2023/05/14 10:17:18;;;;;;;5.30;3.80;;;;;;;;;;107778;283;39746;-35
2023/05/14 10:19:54;;;;;;;6.10;4.10;;;;;;;;;;107735;283;42640;-35
2023/05/14 10:22:33;;;;;;;6.00;3.90;;;;;;;;;;107796;283;42130;-35
2023/05/14 10:25:09;;;;;;;5.50;3.60;;;;;;;;;;107814;276;38779;-35
2023/05/14 10:27:44;;;;;;;5.30;3.60;;;;;;;;;;107842;283;40900;-35
2023/05/14 10:30:18;;;;;;;5.50;3.60;;;;;;;;;;107773;275;44047;-35
2023/05/14 10:33:07;;;;;;;5.90;3.50;;;;;;;;;;107790;283;43124;-36
2023/05/14 10:36:05;;;;;;;5.90;3.70;;;;;;;;;;107765;283;38535;-35
2023/05/14 10:38:40;;;;;;;4.90;3.70;;;;;;;;;;107615;283;39830;-35
2023/05/14 10:41:17;;;;;;;5.80;3.90;;;;;;;;;;107809;283;42809;-35
2023/05/14 10:43:51;;;;;;;5.40;3.90;;;;;;;;;;107796;275;42191;-35
2023/05/14 10:46:28;;;;;;;5.70;3.70;;;;;;;;;;107813;283;40237;-35
2023/05/14 10:49:04;;;;;;;6.40;3.80;;;;;;;;;;107758;275;39706;-34
2023/05/14 10:51:40;;;;;;;5.70;3.80;;;;;;;;;;107706;283;43022;-35
2023/05/14 10:54:16;;;;;;;5.30;3.40;;;;;;;;;;107785;276;42318;-35
2023/05/14 10:56:54;;;;;;;5.30;3.50;;;;;;;;;;107778;276;38689;-35
2023/05/14 10:59:30;;;;;;;5.60;3.80;;;;;;;;;;107797;283;39769;-35
2023/05/14 11:02:06;;;;;;;5.70;3.60;;;;;;;;;;107813;283;42883;-35
2023/05/14 11:04:42;;;;;;;4.70;3.50;;;;;;;;;;107808;283;43545;-35
2023/05/14 11:07:16;;;;;;;4.90;3.60;;;;;;;;;;107814;283;39939;-35
2023/05/14 11:09:52;;;;;;;5.70;3.70;;;;;;;;;;107774;286;39884;-35
2023/05/14 11:12:26;;;;;;;5.50;3.50;;;;;;;;;;107768;276;42909;-37
2023/05/14 11:15:02;;;;;;;5.80;3.70;;;;;;;;;;107762;284;41936;-34
2023/05/14 11:17:42;;;;;;;6.10;3.90;;;;;;;;;;107783;284;38986;-35
2023/05/14 11:20:18;;;;;;;6.60;3.80;;;;;;;;;;107757;284;39809;-35
2023/05/14 11:22:52;;;;;;;5.30;3.50;;;;;;;;;;107761;289;44276;-35
2023/05/14 11:25:25;;;;;;;5.10;3.60;;;;;;;;;;107809;284;42129;-35
2023/05/14 11:28:01;;;;;;;5.70;3.90;;;;;;;;;;107752;285;38843;-35
2023/05/14 11:30:34;;;;;;;5.40;3.70;;;;;;;;;;107710;284;41059;-35
2023/05/14 11:33:08;;;;;;;6.10;3.60;;;;;;;;;;107793;284;42878;-34
2023/05/14 11:35:44;;;;;;;5.90;3.90;;;;;;;;;;107769;284;42179;-35
2023/05/14 11:38:20;;;;;;;5.90;3.60;;;;;;;;;;107782;289;39956;-35
2023/05/14 11:40:57;;;;;;;5.00;3.50;;;;;;;;;;107741;276;39720;-34
2023/05/14 11:43:31;;;;;;;5.00;3.40;;;;;;;;;;107742;283;44093;-35
2023/05/14 11:46:04;;;;;;;5.30;3.60;;;;;;;;;;107779;283;42282;-35
2023/05/14 11:48:38;;;;;;;5.10;3.50;;;;;;;;;;107787;284;38982;-35
2023/05/14 11:51:11;;;;;;;5.10;3.40;;;;;;;;;;107680;284;39744;-35
2023/05/14 11:53:47;;;;;;;5.20;3.10;;;;;;;;;;107736;287;44001;-35
2023/05/14 11:56:21;;;;;;;5.30;3.30;;;;;;;;;;107667;283;175519;-35
2023/05/14 11:58:59;;;;;;;5.00;3.30;;;;;;;;;;107869;283;38812;-35
2023/05/14 12:01:38;;;;;;;4.50;3.00;;;;;;;;;;107800;283;39956;-35
2023/05/14 12:04:12;;;;;;;5.40;3.20;;;;;;;;;;107842;283;42990;-35
2023/05/14 12:06:47;;;;;;;4.90;3.10;;;;;;;;;;107818;283;42315;-35
2023/05/14 12:09:22;;;;;;;4.60;3.40;;;;;;;;;;107814;283;39938;-35
2023/05/14 12:11:57;;;;;;;4.40;2.90;;;;;;;;;;107841;282;39783;-35
2023/05/14 12:14:30;;;;;;;4.80;2.90;;;;;;;;;;107895;282;42662;-35
2023/05/14 12:17:05;;;;;;;4.40;3.00;;;;;;;;;;107879;282;43343;-35
2023/05/14 12:19:43;;;;;;;4.40;3.10;;;;;;;;;;107911;282;39021;-35
2023/05/14 12:22:19;;;;;;;5.50;3.20;;;;;;;;;;107859;282;39456;-35
2023/05/14 12:24:58;;;;;;;5.40;2.80;;;;;;;;;;107882;282;44153;-35
2023/05/14 12:27:32;;;;;;;4.80;3.10;;;;;;;;;;107905;282;42248;-36
2023/05/14 12:30:08;;;;;;;5.90;3.00;;;;;;;;;;107916;282;38826;-36
2023/05/14 12:32:45;;;;;;;5.10;3.10;;;;;;;;;;107853;282;46877;-36
2023/05/14 12:35:21;;;;;;;4.90;3.20;;;;;;;;;;107904;282;44075;-35
2023/05/14 12:37:55;;;;;;;5.20;3.10;;;;;;;;;;107933;282;42524;-35
2023/05/14 12:40:29;;;;;;;4.60;3.10;;;;;;;;;;107883;282;38921;-35
2023/05/14 12:43:03;;;;;;;4.90;3.10;;;;;;;;;;107856;282;45470;-35
2023/05/14 12:45:36;;;;;;;4.60;3.20;;;;;;;;;;107916;275;42842;-36
2023/05/14 12:48:10;;;;;;;4.40;3.10;;;;;;;;;;107856;282;43323;-36
2023/05/14 12:50:43;;;;;;;5.00;2.90;;;;;;;;;;107763;282;191894;-36
2023/05/14 12:53:17;;;;;;;4.70;3.00;;;;;;;;;;107947;286;47453;-36
2023/05/14 12:55:52;;;;;;;4.70;3.00;;;;;;;;;;107827;283;42652;-36
2023/05/14 12:58:29;;;;;;;5.50;3.00;;;;;;;;;;107841;283;42158;-36
2023/05/14 13:01:02;;;;;;;5.60;3.20;;;;;;;;;;107864;283;38794;-36
2023/05/14 13:03:36;;;;;;;4.80;3.00;;;;;;;;;;107801;283;46452;-36
2023/05/14 13:06:10;;;;;;;5.30;3.10;;;;;;;;;;107820;283;44147;-35
2023/05/14 13:08:44;;;;;;;5.20;3.00;;;;;;;;;;107842;283;42113;-35
2023/05/14 13:11:17;;;;;;;5.30;3.10;;;;;;;;;;107802;283;38836;-36
2023/05/14 13:13:50;;;;;;;5.40;3.10;;;;;;;;;;107797;283;46477;-36
2023/05/14 13:16:24;;;;;;;5.50;3.00;;;;;;;;;;107833;283;42883;-35
2023/05/14 13:19:00;;;;;;;5.20;3.00;;;;;;;;;;107824;283;43192;-35
2023/05/14 13:21:34;;;;;;;5.70;3.00;;;;;;;;;;107830;283;38888;-36
2023/05/14 13:24:09;;;;;;;5.70;3.00;;;;;;;;;;107798;283;46519;-36
2023/05/14 13:26:43;;;;;;;4.40;2.90;;;;;;;;;;107806;275;43003;-38
2023/05/14 13:29:17;;;;;;;4.40;2.70;;;;;;;;;;107867;283;43583;-38
2023/05/14 13:31:51;;;;;;;5.20;2.80;;;;;;;;;;107866;282;39951;-40
2023/05/14 13:34:25;;;;;;;5.20;2.90;;;;;;;;;;107847;280;46458;-39
2023/05/14 13:36:59;;;;;;;5.80;2.90;;;;;;;;;;107904;282;44173;-40
2023/05/14 13:39:32;;;;;;;4.70;3.00;;;;;;;;;;107849;284;42205;-38
2023/05/14 13:42:06;;;;;;;4.60;2.70;;;;;;;;;;107882;282;38767;-39
2023/05/14 13:44:40;;;;;;;5.00;2.70;;;;;;;;;;108016;282;46210;-39
2023/05/14 13:47:13;;;;;;;4.60;2.80;;;;;;;;;;107919;282;42893;-37
2023/05/14 13:49:47;;;;;;;5.40;2.70;;;;;;;;;;107896;282;42139;-37
2023/05/14 13:52:20;;;;;;;4.70;2.50;;;;;;;;;;107938;282;38762;-38
2023/05/14 13:54:53;;;;;;;5.20;2.90;;;;;;;;;;107774;283;46564;-37
2023/05/14 13:57:27;;;;;;;4.40;2.70;;;;;;;;;;107833;276;42863;-35
2023/05/14 14:00:00;;;;;;;4.70;2.70;;;;;;;;;;107871;283;43398;-37
2023/05/14 14:02:33;;;;;;;4.30;2.50;;;;;;;;;;107996;275;38824;-39
2023/05/14 14:05:10;;;;;;;4.70;2.60;;;;;;;;;;107896;282;46455;-34
2023/05/14 14:07:43;;;;;;;4.80;2.90;;;;;;;;;;107965;283;43008;-37
2023/05/14 14:10:17;;;;;;;4.70;2.40;;;;;;;;;;107988;282;42143;-35
2023/05/14 14:12:50;;;;;;;5.40;2.80;;;;;;;;;;107955;287;39086;-34
2023/05/14 14:15:24;;;;;;;4.40;2.60;;;;;;;;;;107830;275;45714;-37
2023/05/14 14:17:58;;;;;;;5.30;2.90;;;;;;;;;;107832;283;42862;-38
2023/05/14 14:20:31;;;;;;;4.00;2.50;;;;;;;;;;107953;282;42134;-37
2023/05/14 14:23:05;;;;;;;5.00;2.70;;;;;;;;;;107994;282;39924;-36
2023/05/14 14:25:38;;;;;;;4.20;2.60;;;;;;;;;;107870;282;46290;-39
2023/05/14 14:28:11;;;;;;;4.70;2.70;;;;;;;;;;107952;282;42846;-40
2023/05/14 14:30:45;;;;;;;4.90;2.60;;;;;;;;;;107915;282;42257;-39
2023/05/14 14:33:18;;;;;;;4.30;2.60;;;;;;;;;;107304;282;893378;-39
2023/05/14 14:35:52;;;;;;;4.30;2.70;;;;;;;;;;107931;283;47875;-38
2023/05/14 14:38:26;;;;;;;6.40;3.00;;;;;;;;;;107975;287;43934;-39
2023/05/14 14:41:01;;;;;;;4.90;2.70;;;;;;;;;;107961;283;42181;-39
2023/05/14 14:43:35;;;;;;;5.80;2.70;;;;;;;;;;107959;275;38784;-36
2023/05/14 14:46:08;;;;;;;4.70;2.60;;;;;;;;;;107955;283;46391;-39
2023/05/14 14:48:42;;;;;;;4.40;2.50;;;;;;;;;;107947;275;42871;-38
2023/05/14 14:51:16;;;;;;;4.60;2.60;;;;;;;;;;107955;283;42218;-38
2023/05/14 14:53:50;;;;;;;4.20;2.40;;;;;;;;;;107997;283;40012;-38
2023/05/14 14:56:23;;;;;;;4.80;2.60;;;;;;;;;;107950;283;46578;-38
2023/05/14 14:59:01;;;;;;;4.80;2.60;;;;;;;;;;107926;282;42912;-38
2023/05/14 15:01:37;;;;;;;4.70;2.60;;;;;;;;;;107821;283;42229;-37
2023/05/14 15:04:12;;;;;;;4.10;2.50;;;;;;;;;;107838;280;38740;-38
2023/05/14 15:06:47;;;;;;;4.00;2.50;;;;;;;;;;107804;275;40746;-38
2023/05/14 15:09:26;;;;;;;4.00;2.60;;;;;;;;;;107791;282;42881;-38
2023/05/14 15:12:02;;;;;;;4.60;2.80;;;;;;;;;;107843;282;41921;-38
2023/05/14 15:14:36;;;;;;;4.40;2.60;;;;;;;;;;107801;282;39054;-38
2023/05/14 15:17:11;;;;;;;4.40;2.60;;;;;;;;;;107862;283;39715;-38
2023/05/14 15:19:54;;;;;;;5.10;2.80;;;;;;;;;;107816;282;44199;-37
2023/05/14 15:22:29;;;;;;;4.90;2.90;;;;;;;;;;107825;282;42156;-38
2023/05/14 15:25:05;;;;;;;5.00;2.70;;;;;;;;;;107829;282;40840;-38
2023/05/14 15:27:45;;;;;;;4.20;2.70;;;;;;;;;;107777;282;39736;-38
2023/05/14 15:30:19;;;;;;;4.50;2.70;;;;;;;;;;107656;283;174869;-38